createdAt,value
2023-03-06T00:00:48.465Z,14.45
2023-03-06T00:03:16.329Z,18.15
2023-03-06T00:05:43.567Z,14.13
2023-03-06T00:08:10.544Z,15.63
2023-03-06T00:10:37.803Z,18.98
2023-03-06T00:13:08.533Z,17.00
2023-03-06T00:15:35.505Z,15.80
2023-03-06T00:18:06.775Z,17.10
2023-03-06T00:20:34.764Z,21.67
2023-03-06T00:23:01.782Z,17.65
2023-03-06T00:25:28.670Z,18.92
2023-03-06T00:27:55.761Z,22.17
2023-03-06T00:30:25.538Z,24.10
2023-03-06T00:32:53.097Z,18.13
2023-03-06T00:35:23.261Z,21.30
2023-03-06T00:37:50.531Z,20.50
2023-03-06T00:40:19.602Z,21.10
2023-03-06T00:42:47.431Z,20.07
2023-03-06T00:45:15.060Z,20.38
2023-03-06T00:47:42.510Z,23.60
2023-03-06T00:50:10.581Z,19.48
2023-03-06T00:52:37.672Z,22.27
2023-03-06T00:55:05.450Z,25.50
2023-03-06T00:57:35.938Z,19.02
2023-03-06T01:00:04.291Z,21.13
2023-03-06T01:02:31.713Z,20.60
2023-03-06T01:04:59.014Z,21.10
2023-03-06T01:07:27.681Z,20.87
2023-03-06T01:09:54.627Z,21.05
2023-03-06T01:12:23.527Z,22.15
2023-03-06T01:14:51.470Z,24.27
2023-03-06T01:17:18.560Z,21.15
2023-03-06T01:19:45.572Z,21.70
2023-03-06T01:22:13.995Z,20.42
2023-03-06T01:24:41.118Z,20.35
2023-03-06T01:27:08.136Z,19.45
2023-03-06T01:29:35.240Z,22.30
2023-03-06T01:32:02.275Z,13.80
2023-03-06T01:34:29.540Z,19.73
2023-03-06T01:36:56.496Z,19.17
2023-03-06T01:39:23.308Z,18.38
2023-03-06T01:41:50.329Z,17.95
2023-03-06T01:44:17.320Z,17.70
2023-03-06T01:46:47.315Z,15.80
2023-03-06T01:49:19.981Z,17.45
2023-03-06T01:52:09.039Z,16.55
2023-03-06T01:54:46.891Z,21.05
2023-03-06T01:57:24.013Z,17.20
2023-03-06T02:00:14.847Z,17.08
2023-03-06T02:02:47.522Z,18.20
2023-03-06T02:05:14.573Z,11.90
2023-03-06T02:07:42.948Z,14.88
2023-03-06T02:10:14.970Z,11.50
2023-03-06T02:12:43.780Z,18.45
2023-03-06T02:15:16.885Z,14.70
2023-03-06T02:17:45.748Z,16.95
2023-03-06T02:20:44.425Z,14.30
2023-03-06T02:23:38.377Z,11.70
2023-03-06T02:26:06.771Z,17.58
2023-03-06T02:28:34.356Z,17.23
2023-03-06T02:31:01.321Z,14.93
2023-03-06T02:33:29.761Z,19.45
2023-03-06T02:36:00.069Z,21.47
2023-03-06T02:38:43.844Z,22.85
2023-03-06T02:41:11.617Z,15.43
2023-03-06T02:43:45.970Z,19.58
2023-03-06T02:46:13.744Z,17.55
2023-03-06T02:48:40.724Z,17.67
2023-03-06T02:51:07.557Z,15.98
2023-03-06T02:53:34.461Z,16.45
2023-03-06T02:56:01.497Z,16.88
2023-03-06T02:58:28.334Z,20.98
2023-03-06T03:00:55.352Z,14.97
2023-03-06T03:03:22.342Z,22.83
2023-03-06T03:05:49.325Z,20.20
2023-03-06T03:08:27.819Z,12.35
2023-03-06T03:10:58.326Z,17.45
2023-03-06T03:13:29.029Z,18.67
2023-03-06T03:16:05.237Z,20.98
2023-03-06T03:18:33.342Z,16.45
2023-03-06T03:21:00.541Z,13.93
2023-03-06T03:23:27.695Z,18.25
2023-03-06T03:26:09.535Z,16.10
2023-03-06T03:28:39.622Z,15.45
2023-03-06T03:31:11.269Z,23.27
2023-03-06T03:33:41.724Z,17.02
2023-03-06T03:36:09.613Z,13.65
2023-03-06T03:38:43.629Z,15.47
2023-03-06T03:41:10.539Z,15.48
2023-03-06T03:43:37.489Z,22.38
2023-03-06T03:46:04.738Z,15.15
2023-03-06T03:48:32.272Z,15.13
2023-03-06T03:51:08.901Z,16.27
2023-03-06T03:53:39.452Z,12.23
2023-03-06T03:56:08.025Z,15.82
2023-03-06T03:58:42.193Z,14.63
2023-03-06T04:01:09.657Z,14.48
2023-03-06T04:03:37.235Z,14.03
2023-03-06T04:06:06.689Z,16.15
2023-03-06T04:08:34.552Z,14.75
2023-03-06T04:11:01.688Z,18.60
2023-03-06T04:13:29.442Z,15.65
2023-03-06T04:15:56.960Z,9.27
2023-03-06T04:18:24.379Z,12.05
2023-03-06T04:20:54.054Z,16.13
2023-03-06T04:23:22.946Z,11.07
2023-03-06T04:25:50.422Z,16.85
2023-03-06T04:28:17.653Z,12.93
2023-03-06T04:30:44.826Z,13.35
2023-03-06T04:33:11.912Z,11.60
2023-03-06T04:35:39.333Z,8.10
2023-03-06T04:38:11.806Z,14.82
2023-03-06T04:40:38.736Z,11.73
2023-03-06T04:43:06.494Z,12.18
2023-03-06T04:45:34.477Z,11.85
2023-03-06T04:48:01.925Z,12.85
2023-03-06T04:50:32.516Z,12.07
2023-03-06T04:53:01.654Z,12.33
2023-03-06T04:55:29.218Z,11.35
2023-03-06T04:57:57.102Z,14.85
2023-03-06T05:00:33.288Z,12.30
2023-03-06T05:03:01.595Z,11.82
2023-03-06T05:05:28.828Z,9.17
2023-03-06T05:07:56.367Z,14.15
2023-03-06T05:10:23.520Z,10.55
2023-03-06T05:12:50.439Z,12.85
2023-03-06T05:15:18.036Z,13.52
2023-03-06T05:17:46.378Z,10.30
2023-03-06T05:20:14.102Z,10.18
2023-03-06T05:22:41.402Z,10.13
2023-03-06T05:25:08.954Z,8.43
2023-03-06T05:27:36.097Z,8.02
2023-03-06T05:30:03.790Z,8.50
2023-03-06T05:32:30.722Z,12.57
2023-03-06T05:34:57.619Z,14.43
2023-03-06T05:37:27.392Z,10.57
2023-03-06T05:39:54.499Z,10.27
2023-03-06T05:42:21.481Z,11.07
2023-03-06T05:44:48.352Z,8.82
2023-03-06T05:47:19.110Z,12.32
2023-03-06T05:49:46.884Z,15.98
2023-03-06T05:52:14.844Z,15.05
2023-03-06T05:54:41.741Z,9.50
2023-03-06T05:57:08.594Z,13.63
2023-03-06T05:59:36.002Z,15.20
2023-03-06T06:02:12.735Z,15.15
2023-03-06T06:04:39.614Z,18.85
2023-03-06T06:07:06.508Z,14.27
2023-03-06T06:09:33.393Z,15.77
2023-03-06T06:12:03.585Z,16.00
2023-03-06T06:14:33.320Z,13.95
2023-03-06T06:17:00.283Z,15.85
2023-03-06T06:19:29.324Z,13.50
2023-03-06T06:21:56.283Z,14.05
2023-03-06T06:24:25.701Z,15.98
2023-03-06T06:26:55.305Z,13.25
2023-03-06T06:29:23.055Z,16.42
2023-03-06T06:31:51.384Z,15.90
2023-03-06T06:34:18.687Z,14.57
2023-03-06T06:36:45.978Z,14.98
2023-03-06T06:39:15.876Z,13.20
2023-03-06T06:41:59.325Z,16.83
2023-03-06T06:44:26.643Z,14.50
2023-03-06T06:49:40.500Z,13.60
2023-03-06T06:52:07.667Z,14.68
2023-03-06T06:54:35.155Z,15.98
2023-03-06T06:57:02.167Z,11.87
2023-03-06T06:59:29.109Z,19.13
2023-03-06T07:01:56.015Z,18.17
2023-03-06T07:04:22.888Z,12.75
2023-03-06T07:06:49.707Z,17.05
2023-03-06T07:09:16.534Z,13.83
2023-03-06T07:11:43.303Z,14.10
2023-03-06T07:14:10.166Z,15.38
2023-03-06T07:16:37.099Z,12.40
2023-03-06T07:19:04.334Z,18.13
2023-03-06T07:21:31.415Z,14.90
2023-03-06T07:23:58.288Z,11.88
2023-03-06T07:26:26.638Z,14.18
2023-03-06T07:28:54.221Z,14.38
2023-03-06T07:31:24.362Z,12.35
2023-03-06T07:33:56.021Z,13.30
2023-03-06T07:36:23.779Z,12.20
2023-03-06T07:38:50.687Z,12.77
2023-03-06T07:41:21.204Z,13.70
2023-03-06T07:43:49.469Z,13.43
2023-03-06T07:46:17.165Z,13.43
2023-03-06T07:48:44.633Z,7.13
2023-03-06T07:51:17.802Z,8.48
2023-03-06T07:53:45.004Z,9.80
2023-03-06T07:56:12.484Z,14.70
2023-03-06T07:58:41.699Z,6.23
2023-03-06T08:01:11.296Z,10.02
2023-03-06T08:03:38.625Z,9.20
2023-03-06T08:06:14.098Z,11.80
2023-03-06T08:08:43.093Z,8.32
2023-03-06T08:11:11.677Z,5.50
2023-03-06T08:13:39.420Z,7.95
2023-03-06T08:16:06.919Z,9.20
2023-03-06T08:18:34.375Z,11.25
2023-03-06T08:21:07.412Z,6.03
2023-03-06T08:23:35.127Z,4.97
2023-03-06T08:26:05.383Z,9.18
2023-03-06T08:28:32.760Z,5.63
2023-03-06T08:31:06.868Z,6.07
2023-03-06T08:33:33.689Z,2.60
2023-03-06T08:36:02.088Z,3.83
2023-03-06T08:38:29.417Z,3.85
2023-03-06T08:40:59.424Z,3.67
2023-03-06T08:43:26.313Z,4.47
2023-03-06T08:45:54.724Z,3.17
2023-03-06T08:48:21.634Z,3.27
2023-03-06T08:50:49.024Z,3.65
2023-03-06T08:53:15.968Z,2.83
2023-03-06T08:55:42.923Z,3.53
2023-03-06T08:58:09.831Z,4.57
2023-03-06T09:00:37.097Z,4.90
2023-03-06T09:03:05.119Z,4.72
2023-03-06T09:05:32.206Z,5.15
2023-03-06T09:07:58.998Z,4.40
2023-03-06T09:10:26.890Z,6.38
2023-03-06T09:12:55.199Z,7.93
2023-03-06T09:15:24.011Z,6.55
2023-03-06T09:17:51.090Z,5.78
2023-03-06T09:20:18.805Z,5.43
2023-03-06T09:22:46.083Z,3.75
2023-03-06T09:25:14.050Z,3.57
2023-03-06T09:27:41.337Z,3.75
2023-03-06T09:30:09.175Z,2.90
2023-03-06T09:32:36.005Z,3.78
2023-03-06T09:35:02.813Z,3.65
2023-03-06T09:37:29.828Z,3.40
2023-03-06T09:39:57.704Z,2.92
2023-03-06T09:42:24.969Z,2.75
2023-03-06T09:45:02.597Z,4.63
2023-03-06T09:47:52.838Z,2.78
2023-03-06T09:50:44.724Z,6.20
2023-03-06T15:09:32.758Z,9.43
2023-03-06T15:12:08.479Z,12.63
2023-03-06T15:14:40.799Z,9.48
2023-03-06T15:17:19.848Z,11.80
2023-03-06T15:19:49.637Z,6.90
2023-03-06T15:22:26.621Z,11.70
2023-03-06T15:24:54.390Z,14.52
2023-03-06T15:27:29.543Z,14.50
2023-03-06T15:30:26.279Z,11.95
2023-03-06T15:33:09.684Z,15.20
2023-03-06T15:35:38.216Z,11.57
2023-03-06T15:38:24.531Z,14.85
2023-03-06T15:41:00.112Z,17.33
2023-03-06T15:43:31.562Z,17.80
2023-03-06T15:46:00.928Z,17.07
2023-03-06T15:48:28.513Z,19.30
2023-03-06T15:50:55.489Z,20.17
2023-03-06T15:53:22.938Z,23.35
2023-03-06T15:55:51.672Z,15.57
2023-03-06T15:58:26.530Z,27.27
2023-03-06T16:00:53.526Z,14.63
2023-03-06T16:03:20.371Z,16.20
2023-03-06T16:05:47.202Z,19.70
2023-03-06T16:08:15.041Z,22.63
2023-03-06T16:10:43.917Z,24.17
2023-03-06T16:13:26.216Z,17.88
2023-03-06T16:15:53.179Z,23.92
2023-03-06T16:18:20.274Z,15.98
2023-03-06T16:20:47.548Z,22.60
2023-03-06T16:23:15.475Z,10.80
2023-03-06T16:25:45.859Z,22.77
2023-03-06T16:28:16.453Z,23.63
2023-03-06T16:30:46.537Z,26.33
2023-03-06T16:33:14.295Z,22.92
2023-03-06T16:35:41.417Z,25.90
2023-03-06T16:38:09.953Z,21.08
2023-03-06T16:40:41.108Z,24.30
2023-03-06T16:43:09.545Z,19.33
2023-03-06T16:45:43.539Z,18.25
2023-03-06T16:48:15.626Z,19.70
2023-03-06T16:50:43.114Z,16.42
2023-03-06T16:53:09.967Z,19.30
2023-03-06T16:55:39.950Z,19.20
2023-03-06T16:58:10.029Z,19.25
2023-03-06T17:00:37.343Z,19.50
2023-03-06T17:03:04.464Z,19.02
2023-03-06T17:05:34.006Z,20.75
2023-03-06T17:08:01.209Z,17.27
2023-03-06T17:10:28.190Z,18.52
2023-03-06T17:12:56.323Z,11.93
2023-03-06T17:15:23.371Z,18.98
2023-03-06T17:17:51.712Z,19.58
2023-03-06T17:20:23.868Z,23.80
2023-03-06T17:22:50.936Z,19.92
2023-03-06T17:25:17.988Z,22.90
2023-03-06T17:27:46.500Z,22.50
2023-03-06T17:30:13.638Z,18.73
2023-03-06T17:32:41.195Z,18.38
2023-03-06T17:35:09.658Z,21.95
2023-03-06T17:37:36.595Z,14.87
2023-03-06T17:40:03.733Z,22.15
2023-03-06T17:42:30.631Z,24.05
2023-03-06T17:44:57.522Z,24.38
2023-03-06T17:47:24.282Z,21.10
2023-03-06T17:49:51.131Z,19.83
2023-03-06T17:52:18.088Z,13.68
2023-03-06T17:54:45.147Z,22.50
2023-03-06T17:57:12.147Z,22.95
2023-03-06T17:59:39.177Z,31.90
2023-03-06T18:02:06.719Z,26.80
2023-03-06T18:04:33.641Z,19.67
2023-03-06T18:07:00.527Z,23.00
2023-03-06T18:09:27.396Z,23.15
2023-03-06T18:11:54.227Z,26.38
2023-03-06T18:14:27.349Z,29.13
2023-03-06T18:16:54.184Z,24.73
2023-03-06T18:19:22.151Z,31.05
2023-03-06T18:21:49.084Z,25.67
2023-03-06T18:24:15.977Z,28.95
2023-03-06T18:26:42.912Z,18.83
2023-03-06T18:29:09.975Z,25.45
2023-03-06T18:31:39.426Z,30.48
2023-03-06T18:34:12.227Z,30.65
2023-03-06T18:36:39.981Z,25.88
2023-03-06T18:39:08.873Z,33.40
2023-03-06T18:41:36.598Z,32.97
2023-03-06T18:44:03.789Z,29.65
2023-03-06T18:46:34.182Z,27.83
2023-03-06T18:49:01.369Z,33.35
2023-03-06T18:51:28.878Z,31.53
2023-03-06T18:54:00.383Z,31.20
2023-03-06T18:56:27.495Z,32.65
2023-03-06T18:58:54.958Z,34.97
2023-03-06T19:01:27.206Z,30.88
2023-03-06T19:03:54.284Z,30.67
2023-03-06T19:06:23.550Z,35.13
2023-03-06T19:08:50.384Z,33.80
2023-03-06T19:11:18.125Z,36.40
2023-03-06T19:13:45.059Z,38.33
2023-03-06T19:16:20.489Z,37.10
2023-03-06T19:18:47.917Z,35.58
2023-03-06T19:21:17.660Z,38.20
2023-03-06T19:23:44.721Z,43.03
2023-03-06T19:26:12.640Z,35.15
2023-03-06T19:28:41.495Z,39.43
2023-03-06T19:31:09.874Z,39.08
2023-03-06T19:33:37.810Z,42.13
2023-03-06T19:36:09.817Z,44.42
2023-03-06T19:38:36.897Z,37.05
2023-03-06T19:41:04.607Z,29.27
2023-03-06T19:43:31.856Z,29.83
2023-03-06T19:45:58.866Z,38.25
2023-03-06T19:48:28.829Z,34.55
2023-03-06T19:50:55.871Z,39.88
2023-03-06T19:53:23.236Z,27.60
2023-03-06T19:55:50.175Z,34.05
2023-03-06T19:58:17.134Z,48.13
2023-03-06T20:00:44.221Z,34.05
2023-03-06T20:03:11.093Z,40.35
2023-03-06T20:05:46.267Z,43.30
2023-03-06T20:08:13.252Z,18.35
2023-03-06T20:10:40.263Z,36.58
2023-03-06T20:13:07.220Z,38.70
2023-03-06T20:15:35.135Z,38.63
2023-03-06T20:18:02.292Z,35.33
2023-03-06T20:20:29.536Z,33.97
2023-03-06T20:22:56.508Z,27.02
2023-03-06T20:25:25.708Z,40.67
2023-03-06T20:27:57.196Z,35.97
2023-03-06T20:30:26.438Z,33.93
2023-03-06T20:32:56.408Z,41.13
2023-03-06T20:35:23.236Z,37.90
2023-03-06T20:37:50.666Z,35.70
2023-03-06T20:40:17.812Z,29.55
2023-03-06T20:42:45.060Z,29.63
2023-03-06T20:45:12.136Z,30.63
2023-03-06T20:47:50.386Z,35.20
2023-03-06T20:50:18.127Z,30.33
2023-03-06T20:52:45.286Z,31.48
2023-03-06T20:55:12.243Z,40.23
2023-03-06T20:57:39.097Z,38.40
2023-03-06T21:00:09.632Z,27.90
2023-03-06T21:02:36.800Z,32.33
2023-03-06T21:05:03.995Z,35.72
2023-03-06T21:07:31.463Z,35.13
2023-03-06T21:09:58.268Z,31.63
2023-03-06T21:12:28.375Z,26.50
2023-03-06T21:14:55.655Z,28.90
2023-03-06T21:17:22.938Z,24.65
2023-03-06T21:19:50.981Z,23.53
2023-03-06T21:22:17.873Z,18.25
2023-03-06T21:24:45.072Z,25.27
2023-03-06T21:27:14.956Z,21.05
2023-03-06T21:29:41.897Z,18.40
2023-03-06T21:32:08.990Z,18.63
2023-03-06T21:34:36.177Z,14.65
2023-03-06T21:37:04.042Z,10.15
2023-03-06T21:39:31.970Z,5.28
2023-03-06T21:42:02.138Z,10.95
2023-03-06T21:44:28.949Z,4.83
2023-03-06T21:46:55.828Z,6.22
2023-03-06T21:49:26.922Z,6.30
2023-03-06T21:51:54.979Z,6.57
2023-03-06T21:54:22.245Z,7.20
2023-03-06T21:56:49.165Z,6.67
2023-03-06T21:59:19.759Z,3.53
2023-03-06T22:01:47.627Z,6.05
2023-03-06T22:04:14.599Z,3.83
2023-03-06T22:06:41.859Z,4.72
2023-03-06T22:09:12.943Z,4.63
2023-03-06T22:11:39.855Z,8.25
2023-03-06T22:14:07.042Z,5.03
2023-03-06T22:16:34.129Z,9.13
2023-03-06T22:19:01.106Z,4.95
2023-03-06T22:21:28.402Z,5.17
2023-03-06T22:23:57.551Z,5.47
2023-03-06T22:26:24.984Z,4.78
2023-03-06T22:28:52.192Z,7.03
2023-03-06T22:31:23.949Z,7.88
2023-03-06T22:33:55.877Z,5.70
2023-03-06T22:36:23.638Z,7.03
2023-03-06T22:38:55.952Z,7.07
2023-03-06T22:41:23.055Z,9.13
2023-03-06T22:43:49.867Z,7.05
2023-03-06T22:46:17.980Z,6.67
2023-03-06T22:48:45.147Z,7.28
2023-03-06T22:51:17.843Z,6.60
2023-03-06T22:53:45.519Z,5.43
2023-03-06T22:56:15.688Z,6.03
2023-03-06T22:58:44.800Z,5.07
2023-03-06T23:01:17.355Z,6.72
2023-03-06T23:03:50.088Z,9.32
2023-03-06T23:06:20.458Z,4.88
2023-03-06T23:08:52.977Z,7.78
2023-03-06T23:11:20.734Z,6.10
2023-03-06T23:14:06.218Z,15.20
2023-03-06T23:16:51.843Z,9.90
2023-03-06T23:19:38.026Z,6.32
2023-03-06T23:22:23.204Z,8.32
2023-03-06T23:25:09.363Z,8.13
2023-03-06T23:27:36.781Z,6.97
2023-03-06T23:30:05.720Z,3.08
2023-03-06T23:32:33.763Z,5.45
2023-03-06T23:35:00.909Z,9.25
2023-03-06T23:37:27.817Z,9.50
2023-03-06T23:39:55.212Z,5.55
2023-03-06T23:42:22.689Z,4.90
2023-03-06T23:44:49.528Z,8.00
2023-03-06T23:47:17.283Z,8.77
2023-03-06T23:49:44.187Z,3.57
2023-03-06T23:52:11.008Z,10.45
2023-03-06T23:54:38.156Z,7.32
2023-03-06T23:57:05.176Z,3.85
2023-03-06T23:59:34.463Z,6.00
